Terminal Aerodrome Forecast
Issued by NWS Denver/Boulder, CO

Home | Current Version | Previous Version | Text Only | Print | Product List | Glossary On
Versions: 1 2 3 4 5 6 7 8 9 10 11 12 13 14 15 16 17 18 19 20 21 22 23 24 25 26 27 28 29 30 31 32 33 34 35 36 37 38 39 40 41 42 43 44 45 46 47 48 49 50
000
FTUS45 KBOU 252100 AAA
TAFDEN
TAF AMD
KDEN 252100Z 2521/2624 07006KT P6SM SKC
     FM260100 14006KT P6SM SCT250
     FM260400 19008KT P6SM BKN220
     FM260700 25007KT P6SM BKN200
     FM260900 35017G27KT P6SM SCT100 BKN200
     FM261200 36016G24KT P6SM BKN035 BKN070
     FM261900 01014G22KT P6SM BKN045 BKN070
     FM262300 05010KT P6SM SCT050=

USA.gov is the U.S. government's official web portal to all federal, state and local government web resources and services.